sensor_id;sensor_type;location;lat;lon;timestamp;temperature;humidity
21403;DHT22;10862;51.886;17.078;2023-02-28T00:00:18;1.00;1.00
21403;DHT22;10862;51.886;17.078;2023-02-28T00:02:45;1.00;1.00
21403;DHT22;10862;51.886;17.078;2023-02-28T00:05:13;1.00;1.00
21403;DHT22;10862;51.886;17.078;2023-02-28T00:07:39;1.10;1.00
21403;DHT22;10862;51.886;17.078;2023-02-28T00:10:06;1.10;1.00
21403;DHT22;10862;51.886;17.078;2023-02-28T00:12:33;1.00;1.00
21403;DHT22;10862;51.886;17.078;2023-02-28T00:14:59;1.00;1.00
21403;DHT22;10862;51.886;17.078;2023-02-28T00:17:25;1.00;1.00
21403;DHT22;10862;51.886;17.078;2023-02-28T00:19:51;1.00;1.00
21403;DHT22;10862;51.886;17.078;2023-02-28T00:22:19;1.00;1.00
21403;DHT22;10862;51.886;17.078;2023-02-28T00:24:45;1.00;1.00
21403;DHT22;10862;51.886;17.078;2023-02-28T00:27:11;1.00;1.00
21403;DHT22;10862;51.886;17.078;2023-02-28T00:29:37;1.00;1.00
21403;DHT22;10862;51.886;17.078;2023-02-28T00:32:04;1.00;1.00
21403;DHT22;10862;51.886;17.078;2023-02-28T00:34:30;1.00;1.00
21403;DHT22;10862;51.886;17.078;2023-02-28T00:36:55;0.90;1.00
21403;DHT22;10862;51.886;17.078;2023-02-28T00:39:21;1.00;1.00
21403;DHT22;10862;51.886;17.078;2023-02-28T00:41:47;1.00;1.00
21403;DHT22;10862;51.886;17.078;2023-02-28T00:44:13;1.00;1.00
21403;DHT22;10862;51.886;17.078;2023-02-28T00:46:39;0.90;1.00
21403;DHT22;10862;51.886;17.078;2023-02-28T00:49:04;1.00;1.00
21403;DHT22;10862;51.886;17.078;2023-02-28T00:51:30;1.00;1.00
21403;DHT22;10862;51.886;17.078;2023-02-28T00:53:56;1.00;1.00
21403;DHT22;10862;51.886;17.078;2023-02-28T00:56:21;1.00;1.00
21403;DHT22;10862;51.886;17.078;2023-02-28T00:58:47;1.00;1.00
21403;DHT22;10862;51.886;17.078;2023-02-28T01:01:13;1.00;1.00
21403;DHT22;10862;51.886;17.078;2023-02-28T01:03:38;1.00;1.00
21403;DHT22;10862;51.886;17.078;2023-02-28T01:06:04;0.90;1.00
21403;DHT22;10862;51.886;17.078;2023-02-28T01:08:30;0.80;1.00
21403;DHT22;10862;51.886;17.078;2023-02-28T01:10:56;0.80;1.00
21403;DHT22;10862;51.886;17.078;2023-02-28T01:13:22;0.70;1.00
21403;DHT22;10862;51.886;17.078;2023-02-28T01:15:53;0.70;1.00
21403;DHT22;10862;51.886;17.078;2023-02-28T01:18:21;0.70;1.00
21403;DHT22;10862;51.886;17.078;2023-02-28T01:20:47;0.60;1.00
21403;DHT22;10862;51.886;17.078;2023-02-28T01:23:13;0.70;1.00
21403;DHT22;10862;51.886;17.078;2023-02-28T01:25:38;0.70;1.00
21403;DHT22;10862;51.886;17.078;2023-02-28T01:28:05;0.70;1.00
21403;DHT22;10862;51.886;17.078;2023-02-28T01:30:32;0.80;1.00
21403;DHT22;10862;51.886;17.078;2023-02-28T01:32:58;0.70;1.00
21403;DHT22;10862;51.886;17.078;2023-02-28T01:35:24;0.70;1.00
21403;DHT22;10862;51.886;17.078;2023-02-28T01:37:49;0.70;1.00
21403;DHT22;10862;51.886;17.078;2023-02-28T01:40:15;0.70;1.00
21403;DHT22;10862;51.886;17.078;2023-02-28T01:42:41;0.60;1.00
21403;DHT22;10862;51.886;17.078;2023-02-28T01:45:31;0.50;1.00
21403;DHT22;10862;51.886;17.078;2023-02-28T01:48:03;0.50;1.00
21403;DHT22;10862;51.886;17.078;2023-02-28T01:50:36;0.50;1.00
21403;DHT22;10862;51.886;17.078;2023-02-28T01:53:06;0.60;1.00
21403;DHT22;10862;51.886;17.078;2023-02-28T01:55:32;0.50;1.00
21403;DHT22;10862;51.886;17.078;2023-02-28T01:58:01;0.50;1.00
21403;DHT22;10862;51.886;17.078;2023-02-28T02:00:29;0.40;1.00
21403;DHT22;10862;51.886;17.078;2023-02-28T02:03:01;0.50;1.00
21403;DHT22;10862;51.886;17.078;2023-02-28T02:05:31;0.40;1.00
21403;DHT22;10862;51.886;17.078;2023-02-28T02:08:18;0.40;1.00
21403;DHT22;10862;51.886;17.078;2023-02-28T02:10:56;0.30;1.00
21403;DHT22;10862;51.886;17.078;2023-02-28T02:32:25;-0.20;1.00
21403;DHT22;10862;51.886;17.078;2023-02-28T02:35:16;-0.30;1.00
21403;DHT22;10862;51.886;17.078;2023-02-28T02:40:46;-0.40;1.00
21403;DHT22;10862;51.886;17.078;2023-02-28T02:43:36;-0.50;1.00
21403;DHT22;10862;51.886;17.078;2023-02-28T02:46:28;-0.60;1.00
21403;DHT22;10862;51.886;17.078;2023-02-28T02:48:56;-0.60;1.00
21403;DHT22;10862;51.886;17.078;2023-02-28T02:51:24;-0.70;1.00
21403;DHT22;10862;51.886;17.078;2023-02-28T02:54:07;-0.70;1.00
21403;DHT22;10862;51.886;17.078;2023-02-28T02:56:36;-0.80;1.00
21403;DHT22;10862;51.886;17.078;2023-02-28T02:59:07;-0.80;1.00
21403;DHT22;10862;51.886;17.078;2023-02-28T03:01:35;-0.80;1.00
21403;DHT22;10862;51.886;17.078;2023-02-28T03:04:06;-0.90;1.00
21403;DHT22;10862;51.886;17.078;2023-02-28T03:06:33;-0.90;1.00
21403;DHT22;10862;51.886;17.078;2023-02-28T03:09:00;-1.00;4.00
21403;DHT22;10862;51.886;17.078;2023-02-28T03:11:26;-1.00;7.10
21403;DHT22;10862;51.886;17.078;2023-02-28T03:24:48;-1.20;27.30
21403;DHT22;10862;51.886;17.078;2023-02-28T03:32:50;-1.30;42.10
21403;DHT22;10862;51.886;17.078;2023-02-28T03:35:27;-1.30;46.40
21403;DHT22;10862;51.886;17.078;2023-02-28T03:38:22;-1.30;49.80
21403;DHT22;10862;51.886;17.078;2023-02-28T03:41:01;-1.40;50.20
21403;DHT22;10862;51.886;17.078;2023-02-28T03:43:34;-1.40;51.80
21403;DHT22;10862;51.886;17.078;2023-02-28T03:46:04;-1.40;54.80
21403;DHT22;10862;51.886;17.078;2023-02-28T03:48:38;-1.40;61.90
21403;DHT22;10862;51.886;17.078;2023-02-28T03:51:09;-1.40;65.40
21403;DHT22;10862;51.886;17.078;2023-02-28T03:53:39;-1.40;76.10
21403;DHT22;10862;51.886;17.078;2023-02-28T03:59:01;-1.40;85.60
21403;DHT22;10862;51.886;17.078;2023-02-28T04:01:39;-1.50;91.60
21403;DHT22;10862;51.886;17.078;2023-02-28T04:04:10;-1.50;92.70
21403;DHT22;10862;51.886;17.078;2023-02-28T04:06:37;-1.50;97.60
21403;DHT22;10862;51.886;17.078;2023-02-28T04:09:04;-1.60;99.90
21403;DHT22;10862;51.886;17.078;2023-02-28T04:11:44;-1.60;99.90
21403;DHT22;10862;51.886;17.078;2023-02-28T04:14:11;-1.60;99.90
21403;DHT22;10862;51.886;17.078;2023-02-28T04:16:39;-1.70;99.90
21403;DHT22;10862;51.886;17.078;2023-02-28T04:19:07;-1.70;99.90
21403;DHT22;10862;51.886;17.078;2023-02-28T04:21:40;-1.80;99.90
21403;DHT22;10862;51.886;17.078;2023-02-28T04:24:08;-1.80;99.90
21403;DHT22;10862;51.886;17.078;2023-02-28T04:26:36;-1.80;99.90
21403;DHT22;10862;51.886;17.078;2023-02-28T04:29:04;-1.80;99.90
21403;DHT22;10862;51.886;17.078;2023-02-28T04:31:31;-1.80;99.90
21403;DHT22;10862;51.886;17.078;2023-02-28T04:33:56;-1.90;99.90
21403;DHT22;10862;51.886;17.078;2023-02-28T04:36:22;-1.90;99.90
21403;DHT22;10862;51.886;17.078;2023-02-28T04:38:49;-1.90;99.90
21403;DHT22;10862;51.886;17.078;2023-02-28T04:41:15;-2.00;99.90
21403;DHT22;10862;51.886;17.078;2023-02-28T04:43:41;-1.90;99.90
21403;DHT22;10862;51.886;17.078;2023-02-28T04:46:07;-1.90;99.90
21403;DHT22;10862;51.886;17.078;2023-02-28T04:48:35;-2.00;99.90
21403;DHT22;10862;51.886;17.078;2023-02-28T04:51:06;-2.00;99.90
21403;DHT22;10862;51.886;17.078;2023-02-28T04:53:32;-2.10;99.90
21403;DHT22;10862;51.886;17.078;2023-02-28T04:55:58;-2.00;99.90
21403;DHT22;10862;51.886;17.078;2023-02-28T04:58:24;-2.00;99.90
21403;DHT22;10862;51.886;17.078;2023-02-28T05:00:54;-2.00;99.90
21403;DHT22;10862;51.886;17.078;2023-02-28T05:03:20;-2.00;99.90
21403;DHT22;10862;51.886;17.078;2023-02-28T05:05:47;-2.10;99.90
21403;DHT22;10862;51.886;17.078;2023-02-28T05:08:13;-2.00;99.90
21403;DHT22;10862;51.886;17.078;2023-02-28T05:10:39;-2.10;99.90
21403;DHT22;10862;51.886;17.078;2023-02-28T05:13:05;-2.10;99.90
21403;DHT22;10862;51.886;17.078;2023-02-28T05:15:30;-2.20;99.90
21403;DHT22;10862;51.886;17.078;2023-02-28T05:17:56;-2.20;99.90
21403;DHT22;10862;51.886;17.078;2023-02-28T05:20:22;-2.20;99.90
21403;DHT22;10862;51.886;17.078;2023-02-28T05:22:47;-2.10;99.90
21403;DHT22;10862;51.886;17.078;2023-02-28T05:25:19;-2.20;99.90
21403;DHT22;10862;51.886;17.078;2023-02-28T05:27:47;-2.20;99.90
21403;DHT22;10862;51.886;17.078;2023-02-28T05:30:13;-2.30;99.90
21403;DHT22;10862;51.886;17.078;2023-02-28T05:32:40;-2.30;99.90
21403;DHT22;10862;51.886;17.078;2023-02-28T05:35:10;-2.20;99.90
21403;DHT22;10862;51.886;17.078;2023-02-28T05:37:37;-2.20;99.90
21403;DHT22;10862;51.886;17.078;2023-02-28T05:40:03;-2.30;99.90
21403;DHT22;10862;51.886;17.078;2023-02-28T05:42:31;-2.30;99.90
21403;DHT22;10862;51.886;17.078;2023-02-28T05:44:57;-2.30;99.90
21403;DHT22;10862;51.886;17.078;2023-02-28T05:47:23;-2.30;99.90
21403;DHT22;10862;51.886;17.078;2023-02-28T05:49:49;-2.40;99.90
21403;DHT22;10862;51.886;17.078;2023-02-28T05:52:14;-2.40;99.90
21403;DHT22;10862;51.886;17.078;2023-02-28T05:54:41;-2.40;99.90
21403;DHT22;10862;51.886;17.078;2023-02-28T05:57:07;-2.40;99.90
21403;DHT22;10862;51.886;17.078;2023-02-28T05:59:32;-2.30;99.90
21403;DHT22;10862;51.886;17.078;2023-02-28T06:01:58;-2.30;99.90
21403;DHT22;10862;51.886;17.078;2023-02-28T06:04:24;-2.30;99.90
21403;DHT22;10862;51.886;17.078;2023-02-28T06:06:50;-2.30;99.90
21403;DHT22;10862;51.886;17.078;2023-02-28T06:09:17;-2.40;99.90
21403;DHT22;10862;51.886;17.078;2023-02-28T06:11:43;-2.40;99.90
21403;DHT22;10862;51.886;17.078;2023-02-28T06:14:17;-2.30;99.90
21403;DHT22;10862;51.886;17.078;2023-02-28T06:16:43;-2.40;99.90
21403;DHT22;10862;51.886;17.078;2023-02-28T06:19:10;-2.40;99.90
21403;DHT22;10862;51.886;17.078;2023-02-28T06:21:36;-2.30;99.90
21403;DHT22;10862;51.886;17.078;2023-02-28T06:24:02;-2.30;99.90
21403;DHT22;10862;51.886;17.078;2023-02-28T06:26:29;-2.30;99.90
21403;DHT22;10862;51.886;17.078;2023-02-28T06:28:55;-2.20;99.90
21403;DHT22;10862;51.886;17.078;2023-02-28T06:31:21;-2.20;99.90
21403;DHT22;10862;51.886;17.078;2023-02-28T06:33:48;-2.10;99.90
21403;DHT22;10862;51.886;17.078;2023-02-28T06:36:15;-2.10;99.90
21403;DHT22;10862;51.886;17.078;2023-02-28T06:38:41;-2.10;99.90
21403;DHT22;10862;51.886;17.078;2023-02-28T06:41:07;-2.00;99.90
21403;DHT22;10862;51.886;17.078;2023-02-28T06:43:36;-1.90;99.90
21403;DHT22;10862;51.886;17.078;2023-02-28T06:46:04;-1.90;99.90
21403;DHT22;10862;51.886;17.078;2023-02-28T06:48:30;-1.80;99.90
21403;DHT22;10862;51.886;17.078;2023-02-28T06:53:29;-1.80;99.90
21403;DHT22;10862;51.886;17.078;2023-02-28T06:55:55;-1.70;99.90
21403;DHT22;10862;51.886;17.078;2023-02-28T06:58:20;-1.70;99.90
21403;DHT22;10862;51.886;17.078;2023-02-28T07:00:51;-1.60;99.90
21403;DHT22;10862;51.886;17.078;2023-02-28T07:03:17;-1.60;99.90
21403;DHT22;10862;51.886;17.078;2023-02-28T07:05:44;-1.60;99.90
21403;DHT22;10862;51.886;17.078;2023-02-28T07:08:10;-1.50;99.90
21403;DHT22;10862;51.886;17.078;2023-02-28T07:10:38;-1.40;99.90
21403;DHT22;10862;51.886;17.078;2023-02-28T07:13:05;-1.30;99.90
21403;DHT22;10862;51.886;17.078;2023-02-28T07:15:31;-1.30;99.90
21403;DHT22;10862;51.886;17.078;2023-02-28T07:17:57;-1.20;99.90
21403;DHT22;10862;51.886;17.078;2023-02-28T07:20:24;-1.20;99.90
21403;DHT22;10862;51.886;17.078;2023-02-28T07:22:50;-1.10;99.90
21403;DHT22;10862;51.886;17.078;2023-02-28T07:25:26;-1.10;99.90
21403;DHT22;10862;51.886;17.078;2023-02-28T07:27:52;-1.00;99.90
21403;DHT22;10862;51.886;17.078;2023-02-28T07:30:18;-1.00;99.90
21403;DHT22;10862;51.886;17.078;2023-02-28T07:32:44;-0.90;99.90
21403;DHT22;10862;51.886;17.078;2023-02-28T07:35:10;-0.80;99.90
21403;DHT22;10862;51.886;17.078;2023-02-28T07:37:35;-0.80;99.90
21403;DHT22;10862;51.886;17.078;2023-02-28T07:40:06;-0.80;99.90
21403;DHT22;10862;51.886;17.078;2023-02-28T07:42:34;-0.70;99.90
21403;DHT22;10862;51.886;17.078;2023-02-28T07:45:00;-0.60;99.90
21403;DHT22;10862;51.886;17.078;2023-02-28T07:47:26;-0.50;99.90
21403;DHT22;10862;51.886;17.078;2023-02-28T07:49:52;-0.40;99.90
21403;DHT22;10862;51.886;17.078;2023-02-28T07:52:18;-0.40;99.90
21403;DHT22;10862;51.886;17.078;2023-02-28T07:54:43;-0.40;99.90
21403;DHT22;10862;51.886;17.078;2023-02-28T07:57:09;-0.20;99.90
21403;DHT22;10862;51.886;17.078;2023-02-28T07:59:35;-0.10;99.90
21403;DHT22;10862;51.886;17.078;2023-02-28T08:02:00;-0.10;99.90
21403;DHT22;10862;51.886;17.078;2023-02-28T08:04:26;-0.10;99.90
21403;DHT22;10862;51.886;17.078;2023-02-28T08:06:52;0.00;99.90
21403;DHT22;10862;51.886;17.078;2023-02-28T08:09:19;0.00;99.90
21403;DHT22;10862;51.886;17.078;2023-02-28T08:11:44;0.20;99.90
21403;DHT22;10862;51.886;17.078;2023-02-28T08:14:10;0.20;99.90
21403;DHT22;10862;51.886;17.078;2023-02-28T08:16:36;0.20;99.90
21403;DHT22;10862;51.886;17.078;2023-02-28T08:19:02;0.30;99.90
21403;DHT22;10862;51.886;17.078;2023-02-28T08:21:28;0.30;99.90
21403;DHT22;10862;51.886;17.078;2023-02-28T08:23:53;0.30;99.90
21403;DHT22;10862;51.886;17.078;2023-02-28T08:26:19;0.60;99.90
21403;DHT22;10862;51.886;17.078;2023-02-28T08:28:46;0.80;99.90
21403;DHT22;10862;51.886;17.078;2023-02-28T08:31:13;1.00;99.90
21403;DHT22;10862;51.886;17.078;2023-02-28T08:33:40;1.00;99.90
21403;DHT22;10862;51.886;17.078;2023-02-28T08:36:08;1.10;99.90
21403;DHT22;10862;51.886;17.078;2023-02-28T08:38:35;1.20;99.90
21403;DHT22;10862;51.886;17.078;2023-02-28T08:41:04;1.20;99.90
21403;DHT22;10862;51.886;17.078;2023-02-28T08:43:31;1.30;98.30
21403;DHT22;10862;51.886;17.078;2023-02-28T08:45:57;1.40;89.60
21403;DHT22;10862;51.886;17.078;2023-02-28T08:48:24;1.70;71.70
21403;DHT22;10862;51.886;17.078;2023-02-28T08:51:03;1.60;48.10
21403;DHT22;10862;51.886;17.078;2023-02-28T08:53:29;1.70;30.90
21403;DHT22;10862;51.886;17.078;2023-02-28T08:56:17;1.70;16.80
21403;DHT22;10862;51.886;17.078;2023-02-28T08:58:45;1.80;5.70
21403;DHT22;10862;51.886;17.078;2023-02-28T09:01:16;2.00;1.00
21403;DHT22;10862;51.886;17.078;2023-02-28T09:03:42;2.10;1.00
21403;DHT22;10862;51.886;17.078;2023-02-28T09:06:09;2.00;1.00
21403;DHT22;10862;51.886;17.078;2023-02-28T09:08:36;1.90;1.00
21403;DHT22;10862;51.886;17.078;2023-02-28T09:11:02;1.90;1.00
21403;DHT22;10862;51.886;17.078;2023-02-28T09:13:29;2.50;1.00
21403;DHT22;10862;51.886;17.078;2023-02-28T09:15:58;2.70;1.00
21403;DHT22;10862;51.886;17.078;2023-02-28T09:18:24;2.90;1.00
21403;DHT22;10862;51.886;17.078;2023-02-28T09:20:50;3.20;1.00
21403;DHT22;10862;51.886;17.078;2023-02-28T09:23:16;3.90;1.00
21403;DHT22;10862;51.886;17.078;2023-02-28T09:25:59;5.40;1.00
21403;DHT22;10862;51.886;17.078;2023-02-28T09:28:25;7.40;1.00
21403;DHT22;10862;51.886;17.078;2023-02-28T09:30:53;8.20;1.00
21403;DHT22;10862;51.886;17.078;2023-02-28T09:33:20;8.70;1.00
21403;DHT22;10862;51.886;17.078;2023-02-28T09:35:49;8.40;1.00
21403;DHT22;10862;51.886;17.078;2023-02-28T09:38:16;8.10;1.00
21403;DHT22;10862;51.886;17.078;2023-02-28T09:41:02;9.30;1.00
21403;DHT22;10862;51.886;17.078;2023-02-28T09:43:35;9.00;1.00
21403;DHT22;10862;51.886;17.078;2023-02-28T09:48:48;9.50;1.00
21403;DHT22;10862;51.886;17.078;2023-02-28T09:53:46;9.30;1.00
21403;DHT22;10862;51.886;17.078;2023-02-28T09:56:20;9.50;1.00
21403;DHT22;10862;51.886;17.078;2023-02-28T10:02:04;10.70;1.00
21403;DHT22;10862;51.886;17.078;2023-02-28T10:10:21;10.20;1.00
21403;DHT22;10862;51.886;17.078;2023-02-28T10:12:52;10.30;1.00
21403;DHT22;10862;51.886;17.078;2023-02-28T10:15:19;10.30;1.00
21403;DHT22;10862;51.886;17.078;2023-02-28T10:17:51;9.70;1.00
21403;DHT22;10862;51.886;17.078;2023-02-28T10:20:21;10.30;1.00
21403;DHT22;10862;51.886;17.078;2023-02-28T10:25:37;8.20;1.00
21403;DHT22;10862;51.886;17.078;2023-02-28T10:28:13;8.20;1.00
21403;DHT22;10862;51.886;17.078;2023-02-28T10:30:51;8.70;1.00
21403;DHT22;10862;51.886;17.078;2023-02-28T10:33:18;7.80;1.00
21403;DHT22;10862;51.886;17.078;2023-02-28T10:35:44;7.70;1.00
21403;DHT22;10862;51.886;17.078;2023-02-28T10:38:18;7.80;1.00
21403;DHT22;10862;51.886;17.078;2023-02-28T10:40:44;7.00;1.00
21403;DHT22;10862;51.886;17.078;2023-02-28T10:45:39;5.30;1.00
21403;DHT22;10862;51.886;17.078;2023-02-28T11:04:03;5.90;1.00
21403;DHT22;10862;51.886;17.078;2023-02-28T11:06:35;6.10;1.00
21403;DHT22;10862;51.886;17.078;2023-02-28T11:09:04;6.10;1.00
21403;DHT22;10862;51.886;17.078;2023-02-28T11:11:45;5.60;1.00
21403;DHT22;10862;51.886;17.078;2023-02-28T11:14:25;5.30;1.00
21403;DHT22;10862;51.886;17.078;2023-02-28T11:16:52;5.10;1.00
21403;DHT22;10862;51.886;17.078;2023-02-28T11:19:27;5.20;1.00
21403;DHT22;10862;51.886;17.078;2023-02-28T11:22:02;4.90;1.00
21403;DHT22;10862;51.886;17.078;2023-02-28T11:24:37;4.80;1.00
21403;DHT22;10862;51.886;17.078;2023-02-28T11:27:05;4.90;1.00
21403;DHT22;10862;51.886;17.078;2023-02-28T11:29:33;4.40;1.00
21403;DHT22;10862;51.886;17.078;2023-02-28T11:32:39;4.00;1.00
21403;DHT22;10862;51.886;17.078;2023-02-28T11:35:29;3.70;1.00
21403;DHT22;10862;51.886;17.078;2023-02-28T11:37:57;3.80;1.00
21403;DHT22;10862;51.886;17.078;2023-02-28T11:40:38;4.50;1.00
21403;DHT22;10862;51.886;17.078;2023-02-28T11:46:17;4.70;1.00
21403;DHT22;10862;51.886;17.078;2023-02-28T11:51:58;4.30;1.00
21403;DHT22;10862;51.886;17.078;2023-02-28T12:07:44;4.10;1.00
21403;DHT22;10862;51.886;17.078;2023-02-28T12:10:30;4.00;1.00
21403;DHT22;10862;51.886;17.078;2023-02-28T12:16:12;4.10;1.00
21403;DHT22;10862;51.886;17.078;2023-02-28T12:19:00;4.00;1.00
21403;DHT22;10862;51.886;17.078;2023-02-28T12:26:43;4.00;1.00
21403;DHT22;10862;51.886;17.078;2023-02-28T12:29:14;3.90;1.00
21403;DHT22;10862;51.886;17.078;2023-02-28T12:31:49;4.00;1.00
21403;DHT22;10862;51.886;17.078;2023-02-28T12:34:20;3.70;1.00
21403;DHT22;10862;51.886;17.078;2023-02-28T12:36:50;3.70;1.00
21403;DHT22;10862;51.886;17.078;2023-02-28T12:42:09;3.80;1.00
21403;DHT22;10862;51.886;17.078;2023-02-28T12:47:29;3.60;1.00
21403;DHT22;10862;51.886;17.078;2023-02-28T12:50:07;3.70;1.00
21403;DHT22;10862;51.886;17.078;2023-02-28T12:56:09;3.80;1.00
21403;DHT22;10862;51.886;17.078;2023-02-28T12:58:50;3.80;1.00
21403;DHT22;10862;51.886;17.078;2023-02-28T13:09:19;3.40;1.00
21403;DHT22;10862;51.886;17.078;2023-02-28T13:11:46;3.40;1.00
21403;DHT22;10862;51.886;17.078;2023-02-28T13:16:59;3.50;1.00
21403;DHT22;10862;51.886;17.078;2023-02-28T13:19:27;3.60;1.00
21403;DHT22;10862;51.886;17.078;2023-02-28T13:21:55;3.60;1.00
21403;DHT22;10862;51.886;17.078;2023-02-28T13:24:51;3.70;1.00
21403;DHT22;10862;51.886;17.078;2023-02-28T13:27:32;3.60;1.00
21403;DHT22;10862;51.886;17.078;2023-02-28T13:29:58;3.60;1.00
21403;DHT22;10862;51.886;17.078;2023-02-28T13:32:35;3.40;1.00
21403;DHT22;10862;51.886;17.078;2023-02-28T13:37:34;3.30;1.00
21403;DHT22;10862;51.886;17.078;2023-02-28T13:40:33;3.50;1.00
21403;DHT22;10862;51.886;17.078;2023-02-28T13:43:08;3.40;1.00
21403;DHT22;10862;51.886;17.078;2023-02-28T13:45:34;3.50;1.00
21403;DHT22;10862;51.886;17.078;2023-02-28T13:48:18;3.60;1.00
21403;DHT22;10862;51.886;17.078;2023-02-28T13:50:44;3.60;1.00
21403;DHT22;10862;51.886;17.078;2023-02-28T13:56:17;3.80;1.00
21403;DHT22;10862;51.886;17.078;2023-02-28T14:06:57;3.70;1.00
21403;DHT22;10862;51.886;17.078;2023-02-28T14:09:44;3.70;1.00
21403;DHT22;10862;51.886;17.078;2023-02-28T14:18:00;4.10;1.00
21403;DHT22;10862;51.886;17.078;2023-02-28T14:20:30;4.30;1.00
21403;DHT22;10862;51.886;17.078;2023-02-28T14:23:17;4.30;1.00
21403;DHT22;10862;51.886;17.078;2023-02-28T14:26:01;4.60;1.00
21403;DHT22;10862;51.886;17.078;2023-02-28T14:31:34;4.60;1.00
21403;DHT22;10862;51.886;17.078;2023-02-28T14:36:37;4.60;1.00
21403;DHT22;10862;51.886;17.078;2023-02-28T14:39:10;4.80;1.00
21403;DHT22;10862;51.886;17.078;2023-02-28T14:41:39;4.90;1.00
21403;DHT22;10862;51.886;17.078;2023-02-28T14:44:27;5.20;1.00
21403;DHT22;10862;51.886;17.078;2023-02-28T14:46:58;5.10;1.00
21403;DHT22;10862;51.886;17.078;2023-02-28T14:52:22;5.10;1.00
21403;DHT22;10862;51.886;17.078;2023-02-28T14:55:00;4.80;1.00
21403;DHT22;10862;51.886;17.078;2023-02-28T14:57:33;5.00;1.00
21403;DHT22;10862;51.886;17.078;2023-02-28T15:00:20;5.00;1.00
21403;DHT22;10862;51.886;17.078;2023-02-28T15:02:46;4.80;1.00
21403;DHT22;10862;51.886;17.078;2023-02-28T15:07:38;5.00;1.00
21403;DHT22;10862;51.886;17.078;2023-02-28T15:10:20;5.10;1.00
21403;DHT22;10862;51.886;17.078;2023-02-28T15:15:20;5.00;1.00
21403;DHT22;10862;51.886;17.078;2023-02-28T15:17:52;5.00;1.00
21403;DHT22;10862;51.886;17.078;2023-02-28T15:20:20;5.00;1.00
21403;DHT22;10862;51.886;17.078;2023-02-28T15:22:47;5.00;1.00
21403;DHT22;10862;51.886;17.078;2023-02-28T15:25:18;4.90;1.00
21403;DHT22;10862;51.886;17.078;2023-02-28T15:27:49;4.90;1.00
21403;DHT22;10862;51.886;17.078;2023-02-28T15:32:44;4.40;1.00
21403;DHT22;10862;51.886;17.078;2023-02-28T15:37:55;4.20;1.00
21403;DHT22;10862;51.886;17.078;2023-02-28T15:40:36;4.10;1.00
21403;DHT22;10862;51.886;17.078;2023-02-28T15:43:14;4.20;1.00
21403;DHT22;10862;51.886;17.078;2023-02-28T15:45:45;4.10;1.00
21403;DHT22;10862;51.886;17.078;2023-02-28T15:48:18;3.80;1.00
21403;DHT22;10862;51.886;17.078;2023-02-28T15:50:48;3.70;1.00
21403;DHT22;10862;51.886;17.078;2023-02-28T15:53:17;3.70;1.00
21403;DHT22;10862;51.886;17.078;2023-02-28T15:55:45;3.50;1.00
21403;DHT22;10862;51.886;17.078;2023-02-28T15:58:18;3.40;1.00
21403;DHT22;10862;51.886;17.078;2023-02-28T16:00:44;3.30;1.00
21403;DHT22;10862;51.886;17.078;2023-02-28T16:03:34;3.20;1.00
21403;DHT22;10862;51.886;17.078;2023-02-28T16:08:47;3.10;1.00
21403;DHT22;10862;51.886;17.078;2023-02-28T16:11:14;2.90;1.00
21403;DHT22;10862;51.886;17.078;2023-02-28T16:13:40;2.90;1.00
21403;DHT22;10862;51.886;17.078;2023-02-28T16:16:06;2.80;1.00
21403;DHT22;10862;51.886;17.078;2023-02-28T16:18:32;2.80;1.00
21403;DHT22;10862;51.886;17.078;2023-02-28T16:20:58;2.70;1.00
21403;DHT22;10862;51.886;17.078;2023-02-28T16:23:23;2.60;1.00
21403;DHT22;10862;51.886;17.078;2023-02-28T16:25:49;2.70;1.00
21403;DHT22;10862;51.886;17.078;2023-02-28T16:28:24;2.60;1.00
21403;DHT22;10862;51.886;17.078;2023-02-28T16:30:53;2.30;1.00
21403;DHT22;10862;51.886;17.078;2023-02-28T16:33:19;2.30;1.00
21403;DHT22;10862;51.886;17.078;2023-02-28T16:35:45;2.30;1.00
21403;DHT22;10862;51.886;17.078;2023-02-28T16:38:11;2.20;1.00
21403;DHT22;10862;51.886;17.078;2023-02-28T16:40:37;2.10;1.00
21403;DHT22;10862;51.886;17.078;2023-02-28T16:43:07;2.10;1.00
21403;DHT22;10862;51.886;17.078;2023-02-28T16:45:35;2.00;1.00
21403;DHT22;10862;51.886;17.078;2023-02-28T16:48:01;1.70;1.00
21403;DHT22;10862;51.886;17.078;2023-02-28T16:50:29;1.70;1.00
21403;DHT22;10862;51.886;17.078;2023-02-28T16:52:56;1.70;1.00
21403;DHT22;10862;51.886;17.078;2023-02-28T16:55:23;1.70;1.00
21403;DHT22;10862;51.886;17.078;2023-02-28T16:57:55;1.70;1.00
21403;DHT22;10862;51.886;17.078;2023-02-28T17:00:21;1.50;1.00
21403;DHT22;10862;51.886;17.078;2023-02-28T17:02:47;1.50;1.00
21403;DHT22;10862;51.886;17.078;2023-02-28T17:05:13;1.50;1.00
21403;DHT22;10862;51.886;17.078;2023-02-28T17:07:41;1.50;1.00
21403;DHT22;10862;51.886;17.078;2023-02-28T17:10:28;1.50;1.00
21403;DHT22;10862;51.886;17.078;2023-02-28T17:12:54;1.50;1.00
21403;DHT22;10862;51.886;17.078;2023-02-28T17:15:20;1.20;1.00
21403;DHT22;10862;51.886;17.078;2023-02-28T17:17:47;1.00;1.00
21403;DHT22;10862;51.886;17.078;2023-02-28T17:20:19;0.90;1.00
21403;DHT22;10862;51.886;17.078;2023-02-28T17:22:48;0.90;1.00
21403;DHT22;10862;51.886;17.078;2023-02-28T17:25:14;0.50;1.00
21403;DHT22;10862;51.886;17.078;2023-02-28T17:27:39;0.60;1.00
21403;DHT22;10862;51.886;17.078;2023-02-28T17:30:22;0.40;1.00
21403;DHT22;10862;51.886;17.078;2023-02-28T17:32:48;0.40;1.00
21403;DHT22;10862;51.886;17.078;2023-02-28T17:35:14;0.50;1.00
21403;DHT22;10862;51.886;17.078;2023-02-28T17:37:41;0.60;1.00
21403;DHT22;10862;51.886;17.078;2023-02-28T17:40:13;0.60;1.00
21403;DHT22;10862;51.886;17.078;2023-02-28T17:42:39;0.70;1.00
21403;DHT22;10862;51.886;17.078;2023-02-28T17:45:05;0.60;1.00
21403;DHT22;10862;51.886;17.078;2023-02-28T17:47:31;0.60;1.00
21403;DHT22;10862;51.886;17.078;2023-02-28T17:49:57;0.50;1.00
21403;DHT22;10862;51.886;17.078;2023-02-28T17:52:22;0.50;1.00
21403;DHT22;10862;51.886;17.078;2023-02-28T17:54:48;0.50;1.00
21403;DHT22;10862;51.886;17.078;2023-02-28T17:57:15;0.50;1.00
21403;DHT22;10862;51.886;17.078;2023-02-28T17:59:41;0.50;1.00
21403;DHT22;10862;51.886;17.078;2023-02-28T18:02:09;0.30;1.00
21403;DHT22;10862;51.886;17.078;2023-02-28T18:04:36;0.20;1.00
21403;DHT22;10862;51.886;17.078;2023-02-28T18:07:02;0.20;1.00
21403;DHT22;10862;51.886;17.078;2023-02-28T18:09:28;0.30;1.00
21403;DHT22;10862;51.886;17.078;2023-02-28T18:11:55;0.20;1.00
21403;DHT22;10862;51.886;17.078;2023-02-28T18:14:23;0.10;1.00
21403;DHT22;10862;51.886;17.078;2023-02-28T18:16:52;-0.10;1.00
21403;DHT22;10862;51.886;17.078;2023-02-28T18:19:18;-0.10;1.00
21403;DHT22;10862;51.886;17.078;2023-02-28T18:21:45;-0.10;1.00
21403;DHT22;10862;51.886;17.078;2023-02-28T18:24:12;-0.20;1.00
21403;DHT22;10862;51.886;17.078;2023-02-28T18:26:39;-0.30;1.00
21403;DHT22;10862;51.886;17.078;2023-02-28T18:29:05;-0.30;1.00
21403;DHT22;10862;51.886;17.078;2023-02-28T18:31:32;-0.30;1.00
21403;DHT22;10862;51.886;17.078;2023-02-28T18:33:58;-0.60;1.00
21403;DHT22;10862;51.886;17.078;2023-02-28T18:36:25;-0.60;1.00